Time;durP1;ratioP1;P1;durP2;ratioP2;P2;SDS_P1;SDS_P2;PMS_P1;PMS_P2;Temp;Humidity;BMP_temperature;BMP_pressure;BME280_temperature;BME280_humidity;BME280_pressure;Samples;Min_cycle;Max_cycle;Signal;HPM_P1;HPM_P2
2023/06/28 00:00:54;;;;;;;5.27;4.00;;;14.50;71.50;;;;;;6244132;28;20274;-76
2023/06/28 00:03:57;;;;;;;4.47;4.00;;;14.50;71.50;;;;;;6215840;28;20345;-77
2023/06/28 00:07:01;;;;;;;4.00;3.80;;;14.40;71.60;;;;;;6229999;28;20243;-77
2023/06/28 00:10:05;;;;;;;4.00;3.73;;;14.40;71.50;;;;;;6236571;28;20244;-77
2023/06/28 00:13:09;;;;;;;7.63;4.00;;;14.40;71.50;;;;;;6233538;28;20246;-78
2023/06/28 00:16:14;;;;;;;6.30;3.90;;;14.30;71.60;;;;;;6239246;28;20308;-78
2023/06/28 00:19:26;;;;;;;4.03;3.70;;;14.40;71.50;;;;;;6230504;28;20277;-75
2023/06/28 00:22:30;;;;;;;3.90;3.70;;;14.30;71.70;;;;;;6260935;28;20236;-76
2023/06/28 00:25:34;;;;;;;5.40;3.90;;;14.30;71.70;;;;;;6255898;28;20287;-77
2023/06/28 00:28:39;;;;;;;5.73;4.00;;;14.40;71.80;;;;;;6234544;28;20833;-78
2023/06/28 00:31:42;;;;;;;7.73;4.97;;;14.30;72.00;;;;;;6233295;28;20762;-77
2023/06/28 00:34:45;;;;;;;5.60;4.07;;;14.30;72.20;;;;;;6238839;28;20345;-76
2023/06/28 00:37:49;;;;;;;4.60;3.80;;;14.20;72.40;;;;;;6243036;28;20237;-78
2023/06/28 00:40:52;;;;;;;4.40;4.07;;;14.20;72.40;;;;;;6263315;28;20238;-75
2023/06/28 00:43:57;;;;;;;5.47;4.13;;;14.20;72.80;;;;;;6252240;28;20234;-77
2023/06/28 00:47:01;;;;;;;4.23;3.93;;;14.10;72.90;;;;;;6217324;28;20235;-77
2023/06/28 00:50:05;;;;;;;7.00;4.77;;;14.10;73.00;;;;;;6237887;28;20922;-77
2023/06/28 00:53:08;;;;;;;5.13;4.40;;;14.10;73.10;;;;;;6227755;28;20242;-77
2023/06/28 00:56:12;;;;;;;4.53;4.07;;;14.10;73.10;;;;;;6232623;28;20241;-78
2023/06/28 00:59:16;;;;;;;5.00;4.50;;;14.10;73.30;;;;;;6224235;28;20777;-77
2023/06/28 01:02:20;;;;;;;4.57;4.17;;;14.00;73.50;;;;;;6230675;28;20250;-78
2023/06/28 01:05:23;;;;;;;4.47;4.10;;;14.00;73.60;;;;;;6237123;28;20235;-77
2023/06/28 01:08:27;;;;;;;5.20;4.30;;;14.00;73.60;;;;;;6240391;28;20242;-77
2023/06/28 01:11:31;;;;;;;7.60;4.33;;;14.00;74.00;;;;;;6257041;28;20253;-77
2023/06/28 01:14:36;;;;;;;4.87;4.40;;;13.90;74.00;;;;;;6261238;28;20751;-75
2023/06/28 01:17:39;;;;;;;6.13;4.20;;;13.90;74.30;;;;;;6251388;28;20226;-76
2023/06/28 01:20:43;;;;;;;7.60;4.40;;;13.90;74.30;;;;;;6246418;28;20246;-79
2023/06/28 01:23:48;;;;;;;5.27;4.40;;;13.90;74.30;;;;;;6262019;28;20230;-77
2023/06/28 01:26:53;;;;;;;5.43;4.10;;;13.90;74.40;;;;;;6227505;28;20246;-78
2023/06/28 01:29:57;;;;;;;6.43;4.23;;;13.90;73.90;;;;;;6230289;28;20238;-78
2023/06/28 01:33:00;;;;;;;7.83;4.60;;;13.90;73.90;;;;;;6218361;28;20257;-77
2023/06/28 01:36:04;;;;;;;4.70;4.30;;;14.00;73.70;;;;;;6224084;28;20263;-78
2023/06/28 01:39:09;;;;;;;5.80;4.63;;;14.00;73.70;;;;;;6235289;28;20320;-76
2023/06/28 01:42:14;;;;;;;4.43;4.07;;;14.00;73.50;;;;;;6220166;28;20262;-79
2023/06/28 01:45:17;;;;;;;6.37;4.03;;;14.00;73.20;;;;;;6230877;28;20257;-78
2023/06/28 01:48:20;;;;;;;5.03;4.30;;;14.00;72.90;;;;;;6232683;28;20250;-77
2023/06/28 01:51:27;;;;;;;9.60;3.80;;;14.10;72.90;;;;;;6229144;28;20305;-77
2023/06/28 01:54:32;;;;;;;6.83;4.30;;;14.00;73.00;;;;;;6232490;28;20305;-78
2023/06/28 01:57:35;;;;;;;5.40;4.00;;;14.00;73.10;;;;;;6225501;28;20854;-76
2023/06/28 02:00:38;;;;;;;6.73;3.97;;;14.00;73.00;;;;;;6238001;28;20293;-75
2023/06/28 02:03:41;;;;;;;4.60;4.17;;;13.90;73.00;;;;;;6233080;28;20227;-76
2023/06/28 02:06:44;;;;;;;4.27;4.00;;;13.90;73.30;;;;;;6239685;28;20230;-77
2023/06/28 02:09:49;;;;;;;5.27;3.83;;;13.90;73.40;;;;;;6240687;28;20241;-76
2023/06/28 02:12:52;;;;;;;5.73;4.53;;;13.90;73.70;;;;;;6229720;28;20281;-76
2023/06/28 02:15:56;;;;;;;6.03;4.40;;;13.90;73.70;;;;;;6220283;28;20269;-76
2023/06/28 02:19:01;;;;;;;6.17;4.20;;;13.80;73.80;;;;;;6239248;28;20231;-77
2023/06/28 02:22:05;;;;;;;6.27;4.60;;;13.90;73.60;;;;;;6215263;28;20330;-77
2023/06/28 02:25:11;;;;;;;5.60;4.70;;;13.90;73.60;;;;;;6220063;28;20250;-75
2023/06/28 02:28:14;;;;;;;6.10;4.20;;;13.90;73.80;;;;;;6231129;28;20297;-77
2023/06/28 02:31:17;;;;;;;5.00;4.50;;;13.90;73.70;;;;;;6225191;28;20242;-78
2023/06/28 02:34:20;;;;;;;6.67;4.37;;;13.90;73.80;;;;;;6231495;28;20373;-77
2023/06/28 02:37:23;;;;;;;4.53;4.13;;;13.90;73.70;;;;;;6219136;28;20281;-76
2023/06/28 02:40:28;;;;;;;5.07;4.43;;;13.90;73.40;;;;;;6232284;28;20298;-78
2023/06/28 02:43:31;;;;;;;6.63;4.17;;;14.00;72.90;;;;;;6230362;28;20249;-78
2023/06/28 02:46:34;;;;;;;5.97;4.23;;;14.00;72.80;;;;;;6231239;28;20246;-78
2023/06/28 02:49:51;;;;;;;7.73;4.43;;;14.00;72.90;;;;;;6186514;28;21004;-78
2023/06/28 02:52:54;;;;;;;7.47;4.20;;;14.00;72.70;;;;;;6179273;28;20239;-76
2023/06/28 02:55:59;;;;;;;6.20;4.17;;;14.00;72.70;;;;;;6175206;28;20703;-77
2023/06/28 02:59:02;;;;;;;5.00;4.50;;;14.00;72.80;;;;;;6186734;28;20243;-76
2023/06/28 03:02:06;;;;;;;5.63;4.40;;;14.00;72.70;;;;;;6187552;28;20244;-78
2023/06/28 03:05:09;;;;;;;6.57;4.50;;;14.00;72.70;;;;;;6181804;28;20327;-78
2023/06/28 03:08:12;;;;;;;4.60;4.20;;;14.00;72.80;;;;;;6179564;28;20240;-82
2023/06/28 03:11:17;;;;;;;7.80;4.93;;;14.00;72.80;;;;;;6160960;28;20236;-81
2023/06/28 03:14:20;;;;;;;8.37;4.87;;;14.10;73.10;;;;;;6184583;28;20957;-81
2023/06/28 03:17:23;;;;;;;6.43;4.40;;;14.10;72.90;;;;;;6185480;28;20240;-81
2023/06/28 03:20:27;;;;;;;6.67;4.33;;;14.10;73.20;;;;;;6206604;28;20243;-80
2023/06/28 03:23:32;;;;;;;7.87;4.20;;;14.20;73.00;;;;;;6234771;28;20260;-80
2023/06/28 03:26:37;;;;;;;8.53;4.47;;;14.10;72.80;;;;;;6233059;28;20243;-81
2023/06/28 03:29:40;;;;;;;4.60;4.23;;;14.20;72.80;;;;;;6209423;28;20733;-80
2023/06/28 03:32:43;;;;;;;7.50;4.40;;;14.20;73.10;;;;;;6226136;28;20242;-80
2023/06/28 03:35:46;;;;;;;8.30;4.50;;;14.20;73.00;;;;;;6230712;28;20319;-80
2023/06/28 03:38:49;;;;;;;5.20;4.23;;;14.20;72.90;;;;;;6215534;28;20802;-81
2023/06/28 03:41:54;;;;;;;10.63;4.70;;;14.20;73.00;;;;;;6221736;28;20800;-80
2023/06/28 03:44:57;;;;;;;5.80;4.10;;;14.20;72.70;;;;;;6232570;28;20318;-84
2023/06/28 03:48:00;;;;;;;6.57;4.60;;;14.30;72.80;;;;;;6229662;28;20274;-81
2023/06/28 03:51:03;;;;;;;4.53;3.87;;;14.30;72.90;;;;;;6236824;28;20238;-78
2023/06/28 03:54:07;;;;;;;6.30;4.60;;;14.30;72.60;;;;;;6232365;28;20288;-81
2023/06/28 03:57:13;;;;;;;5.67;4.00;;;14.30;72.60;;;;;;6220355;28;20246;-80
2023/06/28 04:00:17;;;;;;;6.40;4.13;;;14.40;72.50;;;;;;6236398;28;20254;-79
2023/06/28 04:03:20;;;;;;;9.37;4.23;;;14.40;72.40;;;;;;6259438;28;20237;-79
2023/06/28 04:06:23;;;;;;;5.93;3.87;;;14.40;72.60;;;;;;6260034;28;20290;-80
2023/06/28 04:09:26;;;;;;;6.40;4.10;;;14.30;73.00;;;;;;6250281;28;20245;-81
2023/06/28 04:12:31;;;;;;;4.37;3.97;;;14.30;72.60;;;;;;6250775;28;20253;-80
2023/06/28 04:15:34;;;;;;;9.63;4.37;;;14.30;72.90;;;;;;6250142;28;20253;-80
2023/06/28 04:18:37;;;;;;;7.10;3.97;;;14.30;73.00;;;;;;6260136;28;20245;-80
2023/06/28 04:21:40;;;;;;;6.10;3.57;;;14.30;72.80;;;;;;6248218;28;20241;-82
2023/06/28 04:24:43;;;;;;;7.87;3.80;;;14.30;72.90;;;;;;6261360;28;20242;-80
2023/06/28 04:27:47;;;;;;;7.10;4.37;;;14.40;72.80;;;;;;6257438;28;20877;-83
2023/06/28 04:30:51;;;;;;;6.10;4.30;;;14.40;72.90;;;;;;6257103;28;20254;-82
2023/06/28 04:33:55;;;;;;;4.60;3.90;;;14.40;72.90;;;;;;6255707;28;20368;-82
2023/06/28 04:36:58;;;;;;;7.80;4.20;;;14.40;72.40;;;;;;6255745;28;20253;-82
2023/06/28 04:40:06;;;;;;;6.70;4.53;;;14.50;72.30;;;;;;6254772;28;20237;-82
2023/06/28 04:43:14;;;;;;;7.93;4.33;;;14.50;72.10;;;;;;6255722;28;20246;-82
2023/06/28 04:46:17;;;;;;;4.53;4.20;;;14.50;72.00;;;;;;6253126;28;20752;-79
2023/06/28 04:49:21;;;;;;;4.60;4.10;;;14.60;72.10;;;;;;6249814;28;20237;-81
2023/06/28 04:52:25;;;;;;;11.40;4.27;;;14.60;72.10;;;;;;6254417;28;20292;-81
2023/06/28 04:55:32;;;;;;;7.27;4.80;;;14.70;71.90;;;;;;6232249;28;20729;-81
2023/06/28 04:58:38;;;;;;;6.63;4.37;;;14.70;72.00;;;;;;6262145;28;20697;-81
2023/06/28 05:01:41;;;;;;;6.57;4.17;;;14.80;71.60;;;;;;6255677;28;20297;-82
2023/06/28 05:04:45;;;;;;;9.83;4.30;;;14.70;71.40;;;;;;6262655;28;20229;-81
2023/06/28 05:07:49;;;;;;;4.20;3.80;;;14.70;71.40;;;;;;6234902;28;20625;-80
2023/06/28 05:10:52;;;;;;;5.97;4.17;;;14.80;71.40;;;;;;6229516;28;20386;-80
2023/06/28 05:13:57;;;;;;;5.87;4.30;;;14.80;71.50;;;;;;6216453;28;20246;-83
2023/06/28 05:17:04;;;;;;;5.73;3.83;;;14.90;71.20;;;;;;6223744;28;20239;-84
2023/06/28 05:20:08;;;;;;;6.10;3.70;;;15.00;70.90;;;;;;6229177;28;20238;-79
2023/06/28 05:23:13;;;;;;;4.70;4.13;;;15.00;70.80;;;;;;6239251;28;20231;-81
2023/06/28 05:26:16;;;;;;;7.77;4.03;;;15.10;70.40;;;;;;6253763;28;20339;-80
2023/06/28 05:29:21;;;;;;;6.13;4.30;;;15.20;70.50;;;;;;6257684;28;20257;-80
2023/06/28 05:32:24;;;;;;;8.10;4.50;;;15.10;70.70;;;;;;6267598;28;20250;-79
2023/06/28 05:35:27;;;;;;;5.60;4.20;;;15.20;70.30;;;;;;6259435;28;20230;-80
2023/06/28 05:38:30;;;;;;;7.50;4.47;;;15.00;70.70;;;;;;6253247;28;20235;-84
2023/06/28 05:41:35;;;;;;;8.13;4.50;;;15.00;70.40;;;;;;6253949;28;20246;-82
2023/06/28 05:44:39;;;;;;;4.50;4.10;;;15.20;70.20;;;;;;6260363;28;20238;-82
2023/06/28 05:47:42;;;;;;;4.77;3.80;;;15.10;70.40;;;;;;6261767;28;20249;-82
2023/06/28 05:50:46;;;;;;;4.30;3.90;;;15.20;70.40;;;;;;6262780;28;20272;-82
2023/06/28 05:53:50;;;;;;;6.17;3.53;;;15.30;70.60;;;;;;6264736;28;20244;-80
2023/06/28 05:56:53;;;;;;;3.87;3.50;;;15.80;69.80;;;;;;6250394;28;20239;-82
2023/06/28 05:59:58;;;;;;;5.77;3.60;;;16.20;69.10;;;;;;6226718;28;20907;-81
2023/06/28 06:03:02;;;;;;;7.30;3.97;;;16.60;67.40;;;;;;6256176;28;20258;-82
2023/06/28 06:06:06;;;;;;;5.53;3.67;;;16.80;67.30;;;;;;6263619;28;20242;-80
2023/06/28 06:09:09;;;;;;;6.93;4.03;;;16.70;67.00;;;;;;6264478;28;20245;-81
2023/06/28 06:12:12;;;;;;;5.17;3.03;;;16.50;67.20;;;;;;6261552;28;20253;-81
2023/06/28 06:15:17;;;;;;;5.93;3.73;;;16.40;67.10;;;;;;6259514;28;20319;-82
2023/06/28 06:18:21;;;;;;;3.53;3.20;;;16.40;67.70;;;;;;6259497;28;20290;-80
2023/06/28 06:21:24;;;;;;;6.83;3.40;;;16.50;68.00;;;;;;6261608;28;20284;-82
2023/06/28 06:24:27;;;;;;;6.87;3.27;;;16.80;66.60;;;;;;6263686;28;20234;-81
2023/06/28 06:27:30;;;;;;;6.77;3.20;;;17.00;65.90;;;;;;6259697;28;20234;-81
2023/06/28 06:30:35;;;;;;;6.23;3.30;;;17.50;65.50;;;;;;6261635;28;20319;-80
2023/06/28 06:33:38;;;;;;;3.83;3.43;;;17.80;64.40;;;;;;6258643;28;20242;-82
2023/06/28 06:36:43;;;;;;;6.37;3.30;;;18.00;63.70;;;;;;6263923;28;20313;-81
2023/06/28 06:39:47;;;;;;;4.27;3.47;;;18.00;63.10;;;;;;6267664;28;20737;-80
2023/06/28 06:42:53;;;;;;;6.40;3.20;;;18.40;63.10;;;;;;6260506;28;20637;-81
2023/06/28 06:46:15;;;;;;;5.67;3.07;;;18.90;62.30;;;;;;6235089;28;20241;-80
2023/06/28 06:49:20;;;;;;;4.40;2.87;;;19.10;60.50;;;;;;6233687;28;20324;-83
2023/06/28 06:52:23;;;;;;;6.03;3.13;;;19.10;60.10;;;;;;6242807;28;20773;-82
2023/06/28 06:55:26;;;;;;;4.87;3.33;;;19.40;59.30;;;;;;6256642;28;20283;-81
2023/06/28 06:58:30;;;;;;;5.37;3.00;;;19.20;60.30;;;;;;6261275;28;20328;-81
2023/06/28 07:01:37;;;;;;;2.93;2.77;;;19.40;60.40;;;;;;6258465;28;20931;-83
2023/06/28 07:04:43;;;;;;;3.83;2.90;;;19.90;59.40;;;;;;6260111;28;20246;-80
2023/06/28 07:07:46;;;;;;;3.20;2.57;;;20.30;58.00;;;;;;6224896;28;20230;-81
2023/06/28 07:10:49;;;;;;;6.83;3.03;;;20.00;57.20;;;;;;6237656;28;20361;-80
2023/06/28 07:13:52;;;;;;;3.70;2.80;;;20.00;58.30;;;;;;6225312;28;20836;-80
2023/06/28 07:16:57;;;;;;;3.63;2.70;;;19.70;58.40;;;;;;6230070;28;20239;-80
2023/06/28 07:20:00;;;;;;;4.90;3.03;;;19.60;58.30;;;;;;6232866;28;20335;-80
2023/06/28 07:23:03;;;;;;;5.33;3.30;;;19.60;58.50;;;;;;6234417;28;20257;-81
2023/06/28 07:26:07;;;;;;;3.60;2.60;;;19.70;58.30;;;;;;6256179;28;20227;-84
2023/06/28 07:29:11;;;;;;;7.00;3.30;;;20.00;58.10;;;;;;6261145;28;20230;-81
2023/06/28 07:32:15;;;;;;;6.30;2.87;;;19.90;58.30;;;;;;6264889;28;20312;-82
2023/06/28 07:35:18;;;;;;;3.33;2.47;;;19.50;56.90;;;;;;6258515;28;20650;-81
2023/06/28 07:38:24;;;;;;;2.70;2.40;;;19.30;57.30;;;;;;6255682;28;20239;-81
2023/06/28 07:41:27;;;;;;;4.20;2.57;;;19.40;56.50;;;;;;6256377;28;20679;-78
2023/06/28 07:44:30;;;;;;;3.93;2.90;;;19.30;57.10;;;;;;6256500;28;20517;-82
2023/06/28 07:47:36;;;;;;;3.40;2.30;;;19.40;58.00;;;;;;6251553;28;20270;-80
2023/06/28 07:50:39;;;;;;;4.83;2.83;;;19.60;57.90;;;;;;6249707;28;20235;-81
2023/06/28 07:53:42;;;;;;;6.13;2.80;;;19.50;58.10;;;;;;6258656;28;20292;-78
2023/06/28 07:56:45;;;;;;;5.47;2.53;;;19.40;57.60;;;;;;6264773;28;20234;-78
2023/06/28 07:59:48;;;;;;;3.73;2.90;;;19.20;57.80;;;;;;6265676;28;20234;-80
2023/06/28 08:02:53;;;;;;;3.03;2.77;;;19.10;58.00;;;;;;6252745;28;20273;-79
2023/06/28 08:05:56;;;;;;;5.13;3.07;;;19.00;59.00;;;;;;6259758;28;20231;-78
2023/06/28 08:08:59;;;;;;;3.70;2.60;;;19.20;57.70;;;;;;6259225;28;20260;-78
2023/06/28 08:12:03;;;;;;;2.90;2.60;;;19.10;57.50;;;;;;6260777;28;20422;-81
2023/06/28 08:15:07;;;;;;;3.80;2.47;;;18.90;58.00;;;;;;6259047;28;20242;-82
2023/06/28 08:18:12;;;;;;;10.33;3.27;;;18.80;57.90;;;;;;6263319;28;20413;-80
2023/06/28 08:21:16;;;;;;;4.17;2.87;;;18.70;58.80;;;;;;6243324;28;20235;-79
2023/06/28 08:24:19;;;;;;;3.30;2.30;;;19.00;58.70;;;;;;6259031;28;20265;-81
2023/06/28 08:27:23;;;;;;;6.73;2.70;;;19.20;56.60;;;;;;6258510;28;20308;-79
2023/06/28 08:30:26;;;;;;;3.17;2.87;;;19.20;56.60;;;;;;6258527;28;20226;-78
2023/06/28 08:33:30;;;;;;;3.70;2.93;;;19.30;57.70;;;;;;6252898;28;20265;-79
2023/06/28 08:36:34;;;;;;;5.07;2.20;;;19.40;57.00;;;;;;6279190;28;20234;-80
2023/06/28 08:39:37;;;;;;;2.87;2.43;;;19.50;55.90;;;;;;6276302;28;20242;-79
2023/06/28 08:42:41;;;;;;;2.70;2.50;;;19.70;56.10;;;;;;6275075;28;20250;-79
2023/06/28 08:45:45;;;;;;;3.17;2.37;;;19.90;56.40;;;;;;6265863;28;20246;-80
2023/06/28 08:48:51;;;;;;;2.50;2.40;;;20.20;54.70;;;;;;6283474;28;20237;-80
2023/06/28 08:51:55;;;;;;;2.47;2.33;;;20.50;54.10;;;;;;6280780;28;20249;-81
2023/06/28 08:54:59;;;;;;;2.67;2.47;;;20.60;54.40;;;;;;6261675;28;20254;-80
2023/06/28 08:58:04;;;;;;;3.33;2.30;;;20.60;55.30;;;;;;6255317;28;20230;-80
2023/06/28 09:01:07;;;;;;;5.47;2.80;;;20.50;54.30;;;;;;6253477;28;20238;-81
2023/06/28 09:04:11;;;;;;;2.80;2.40;;;20.50;55.00;;;;;;6251238;28;20380;-81
2023/06/28 09:07:17;;;;;;;8.40;3.10;;;20.50;54.00;;;;;;6263186;28;20258;-81
2023/06/28 09:10:21;;;;;;;8.57;3.27;;;20.40;53.80;;;;;;6252982;28;20234;-80
2023/06/28 09:13:27;;;;;;;3.83;2.50;;;20.50;54.60;;;;;;6261143;28;20239;-78
2023/06/28 09:16:31;;;;;;;2.53;2.30;;;20.40;54.90;;;;;;6254265;28;20242;-80
2023/06/28 09:19:36;;;;;;;2.73;2.57;;;20.30;55.70;;;;;;6243749;28;20297;-80
2023/06/28 09:22:39;;;;;;;5.40;2.60;;;20.30;55.20;;;;;;6251087;28;20342;-79
2023/06/28 09:25:49;;;;;;;7.90;2.63;;;20.40;54.70;;;;;;6234210;28;20232;-81
2023/06/28 09:29:00;;;;;;;4.17;2.50;;;20.50;55.20;;;;;;6246876;28;20695;-79
2023/06/28 09:32:05;;;;;;;2.63;2.43;;;20.40;55.00;;;;;;6250591;28;20270;-80
2023/06/28 09:35:12;;;;;;;2.50;2.30;;;20.30;56.10;;;;;;6236165;28;20242;-79
2023/06/28 09:38:16;;;;;;;3.03;2.70;;;20.50;54.80;;;;;;6239631;28;20250;-80
2023/06/28 09:41:19;;;;;;;2.53;2.33;;;20.60;54.70;;;;;;6244537;28;20309;-78
2023/06/28 09:44:29;;;;;;;2.60;2.40;;;20.80;54.60;;;;;;6236242;28;20312;-79
2023/06/28 09:47:32;;;;;;;2.80;2.40;;;21.10;54.10;;;;;;6234416;28;20242;-80
2023/06/28 09:50:38;;;;;;;2.87;2.60;;;21.10;54.00;;;;;;6234730;28;20813;-80
2023/06/28 09:53:49;;;;;;;2.80;2.60;;;20.90;54.10;;;;;;6237734;28;20322;-79
2023/06/28 09:56:54;;;;;;;4.00;2.60;;;20.90;53.30;;;;;;6225566;28;20262;-79
2023/06/28 09:59:59;;;;;;;3.00;2.60;;;21.20;53.00;;;;;;6226971;28;20769;-81
2023/06/28 10:03:06;;;;;;;3.97;2.57;;;21.50;52.20;;;;;;6246477;28;20707;-79
2023/06/28 10:06:12;;;;;;;4.07;3.40;;;21.70;51.50;;;;;;6233803;28;20250;-80
2023/06/28 10:09:16;;;;;;;2.30;2.20;;;21.90;52.70;;;;;;6227335;28;20234;-80
2023/06/28 10:12:22;;;;;;;2.93;2.30;;;21.80;52.40;;;;;;6238233;28;20251;-81
2023/06/28 10:15:26;;;;;;;2.67;2.57;;;22.00;51.50;;;;;;6233067;28;20314;-80
2023/06/28 10:18:30;;;;;;;2.53;2.40;;;22.00;51.80;;;;;;6239753;28;20234;-79
2023/06/28 10:21:35;;;;;;;2.80;2.60;;;21.90;51.50;;;;;;6238311;28;20250;-81
2023/06/28 10:24:39;;;;;;;2.80;2.60;;;21.90;51.20;;;;;;6230941;28;20227;-80
2023/06/28 10:27:44;;;;;;;2.83;2.50;;;21.90;50.80;;;;;;6218966;28;20763;-79
2023/06/28 10:30:48;;;;;;;2.30;2.10;;;21.80;50.80;;;;;;6238154;28;20235;-80
2023/06/28 10:33:54;;;;;;;2.60;2.40;;;21.90;50.90;;;;;;6229809;28;20241;-80
2023/06/28 10:37:06;;;;;;;4.13;2.40;;;21.90;51.00;;;;;;6229098;28;20741;-79
2023/06/28 10:40:11;;;;;;;2.23;2.13;;;21.70;51.10;;;;;;6234738;28;20254;-80
2023/06/28 10:43:23;;;;;;;5.47;2.60;;;21.90;51.50;;;;;;6230138;28;20331;-80
2023/06/28 10:46:27;;;;;;;4.10;2.57;;;22.10;51.20;;;;;;6233201;28;20239;-79
2023/06/28 10:49:34;;;;;;;2.40;2.30;;;22.30;51.30;;;;;;6229692;28;20802;-79
2023/06/28 10:52:46;;;;;;;3.27;2.30;;;22.20;51.00;;;;;;6215261;28;20235;-80
2023/06/28 10:56:11;;;;;;;2.83;2.20;;;22.00;51.20;;;;;;6227695;28;20238;-81
2023/06/28 10:59:14;;;;;;;3.23;2.43;;;22.30;51.00;;;;;;6239418;28;20246;-79
2023/06/28 11:02:17;;;;;;;2.60;2.30;;;22.70;51.10;;;;;;6230803;28;20247;-80
2023/06/28 11:05:41;;;;;;;2.70;2.50;;;22.90;50.10;;;;;;6229031;28;20317;-79
2023/06/28 11:08:46;;;;;;;2.83;2.67;;;22.80;50.70;;;;;;6236732;28;20223;-77
2023/06/28 11:11:58;;;;;;;3.03;2.50;;;23.00;49.90;;;;;;6231391;28;20657;-78
2023/06/28 11:15:08;;;;;;;4.90;2.40;;;23.10;50.00;;;;;;6232731;28;20844;-80
2023/06/28 11:18:13;;;;;;;6.73;2.60;;;22.90;49.70;;;;;;6233319;28;20242;-81
2023/06/28 11:21:22;;;;;;;3.43;2.43;;;22.80;50.60;;;;;;6237235;28;20238;-80
2023/06/28 11:24:43;;;;;;;2.70;2.60;;;22.70;50.50;;;;;;6250446;28;20231;-80
2023/06/28 11:27:47;;;;;;;2.63;2.30;;;22.60;51.20;;;;;;6227712;28;20241;-76
2023/06/28 11:30:53;;;;;;;3.27;2.60;;;22.60;51.50;;;;;;6241472;28;20254;-75
2023/06/28 11:33:56;;;;;;;2.93;2.60;;;22.70;50.80;;;;;;6239072;28;20250;-79
2023/06/28 11:37:00;;;;;;;3.57;3.30;;;22.90;50.30;;;;;;6236000;28;20719;-78
2023/06/28 11:40:09;;;;;;;2.67;2.47;;;22.80;50.00;;;;;;6232313;28;20292;-76
2023/06/28 11:43:20;;;;;;;2.60;2.40;;;22.90;49.90;;;;;;6237232;28;20396;-76
2023/06/28 11:46:24;;;;;;;2.27;2.13;;;22.80;50.00;;;;;;6239362;28;20297;-77
2023/06/28 11:49:28;;;;;;;2.50;2.30;;;22.80;50.90;;;;;;6240235;28;20250;-78
2023/06/28 11:52:32;;;;;;;7.33;4.27;;;22.80;50.50;;;;;;6243868;28;20322;-76
2023/06/28 11:55:36;;;;;;;3.23;2.50;;;22.70;51.00;;;;;;6245720;28;20234;-78
2023/06/28 11:58:39;;;;;;;2.23;2.13;;;22.50;51.00;;;;;;6239146;28;20259;-81
2023/06/28 12:01:43;;;;;;;2.47;2.37;;;22.80;50.80;;;;;;6239247;28;20235;-79
2023/06/28 12:04:57;;;;;;;2.93;2.63;;;23.10;50.70;;;;;;6229952;28;20294;-79
2023/06/28 12:08:01;;;;;;;5.97;2.90;;;23.30;49.80;;;;;;6223039;28;20646;-80
2023/06/28 12:11:12;;;;;;;2.73;2.47;;;23.40;50.00;;;;;;6232721;28;20307;-80
2023/06/28 12:14:15;;;;;;;3.80;2.63;;;23.50;49.60;;;;;;6230196;28;20242;-80
2023/06/28 12:17:18;;;;;;;3.83;2.50;;;23.60;49.40;;;;;;6258243;28;20269;-78
2023/06/28 12:20:25;;;;;;;3.60;2.67;;;23.60;49.40;;;;;;6256073;28;20247;-79
2023/06/28 12:23:29;;;;;;;2.63;2.43;;;23.40;49.10;;;;;;6214187;28;20376;-78
2023/06/28 12:26:33;;;;;;;2.77;2.57;;;23.60;49.50;;;;;;6249565;28;20241;-78
2023/06/28 12:29:38;;;;;;;3.07;2.23;;;23.90;49.00;;;;;;6234822;28;20238;-79
2023/06/28 12:32:44;;;;;;;2.10;2.00;;;24.10;49.40;;;;;;6235076;28;20241;-78
2023/06/28 12:35:48;;;;;;;2.43;2.43;;;24.00;49.60;;;;;;6245275;28;20312;-77
2023/06/28 12:38:51;;;;;;;2.43;2.40;;;24.10;49.70;;;;;;6222399;28;20231;-79
2023/06/28 12:42:04;;;;;;;3.13;2.90;;;24.20;48.20;;;;;;6232362;28;20313;-81
2023/06/28 12:45:08;;;;;;;2.70;2.60;;;24.20;48.90;;;;;;6223426;28;20239;-80
2023/06/28 12:48:16;;;;;;;3.80;2.93;;;24.20;49.00;;;;;;6224399;28;20792;-79
2023/06/28 12:51:19;;;;;;;2.77;2.57;;;24.20;48.30;;;;;;6214019;28;20864;-79
2023/06/28 12:54:22;;;;;;;3.27;2.50;;;24.20;48.90;;;;;;6220698;28;20816;-79
2023/06/28 12:57:27;;;;;;;2.70;2.30;;;24.00;48.40;;;;;;6248349;28;20292;-80
2023/06/28 13:00:30;;;;;;;3.17;2.97;;;23.80;49.30;;;;;;6228341;28;20787;-79
2023/06/28 13:03:33;;;;;;;3.07;2.73;;;23.50;50.20;;;;;;6214244;28;20674;-79
2023/06/28 13:06:36;;;;;;;2.77;2.57;;;23.60;49.60;;;;;;6228350;28;20444;-80
2023/06/28 13:09:40;;;;;;;5.57;2.80;;;23.90;49.50;;;;;;6223924;28;20313;-81
2023/06/28 13:12:44;;;;;;;2.90;2.70;;;24.00;48.50;;;;;;6231643;28;20230;-80
2023/06/28 13:15:47;;;;;;;2.90;2.60;;;23.80;48.80;;;;;;6235059;28;20293;-79
2023/06/28 13:18:50;;;;;;;2.67;2.47;;;23.60;48.90;;;;;;6221449;28;20247;-76
2023/06/28 13:21:55;;;;;;;3.00;2.80;;;23.70;49.90;;;;;;6226461;28;20235;-78
2023/06/28 13:24:58;;;;;;;3.33;2.60;;;23.80;48.80;;;;;;6233759;28;20253;-76
2023/06/28 13:28:03;;;;;;;3.13;2.60;;;23.80;48.50;;;;;;6240128;28;20231;-78
2023/06/28 13:31:06;;;;;;;2.53;2.40;;;23.60;49.30;;;;;;6242912;28;20336;-77
2023/06/28 13:34:09;;;;;;;2.50;2.37;;;23.70;49.50;;;;;;6255848;28;20235;-77
2023/06/28 13:37:12;;;;;;;2.70;2.50;;;23.60;49.10;;;;;;6246430;28;20241;-78
2023/06/28 13:40:30;;;;;;;3.70;2.30;;;23.60;49.30;;;;;;6225043;28;20235;-78
2023/06/28 13:43:35;;;;;;;2.87;2.70;;;23.60;49.40;;;;;;6237865;28;20247;-76
2023/06/28 13:46:38;;;;;;;2.73;2.53;;;23.60;49.80;;;;;;6257149;28;20238;-77
2023/06/28 13:49:41;;;;;;;2.80;2.70;;;23.80;49.20;;;;;;6259621;28;20695;-78
2023/06/28 13:52:44;;;;;;;3.43;2.37;;;24.00;49.10;;;;;;6261466;28;20312;-76
2023/06/28 13:55:48;;;;;;;2.50;2.43;;;24.10;48.20;;;;;;6259094;28;20847;-77
2023/06/28 13:58:53;;;;;;;3.03;2.70;;;24.20;48.40;;;;;;6263726;28;20361;-76
2023/06/28 14:01:56;;;;;;;2.23;2.13;;;24.40;47.90;;;;;;6261511;28;20257;-77
2023/06/28 14:04:59;;;;;;;3.13;2.47;;;24.40;48.40;;;;;;6242961;28;20251;-75
2023/06/28 14:08:02;;;;;;;2.43;2.23;;;24.60;47.70;;;;;;6227685;28;20806;-78
2023/06/28 14:11:05;;;;;;;3.40;2.50;;;24.40;48.40;;;;;;6235973;28;20246;-75
2023/06/28 14:14:10;;;;;;;2.47;2.27;;;24.50;48.20;;;;;;6229557;28;20297;-77
2023/06/28 14:17:13;;;;;;;2.70;2.50;;;24.60;47.40;;;;;;6238753;28;20308;-79
2023/06/28 14:20:16;;;;;;;4.13;2.77;;;24.60;47.20;;;;;;6233978;28;20929;-78
2023/06/28 14:23:19;;;;;;;4.27;2.63;;;24.50;48.20;;;;;;6231224;28;20365;-77
2023/06/28 14:26:22;;;;;;;2.60;2.50;;;24.50;47.90;;;;;;6236209;28;20839;-77
2023/06/28 14:29:27;;;;;;;3.00;2.80;;;24.40;47.50;;;;;;6237417;28;20249;-78
2023/06/28 14:32:30;;;;;;;4.53;2.50;;;24.30;47.90;;;;;;6259272;28;20318;-80
2023/06/28 14:35:34;;;;;;;2.77;2.53;;;24.20;48.30;;;;;;6255418;28;20366;-78
2023/06/28 14:38:38;;;;;;;2.67;2.50;;;24.20;48.20;;;;;;6266733;28;20350;-76
2023/06/28 14:41:41;;;;;;;2.50;2.30;;;24.40;48.20;;;;;;6261340;28;20296;-78
2023/06/28 14:44:46;;;;;;;3.07;2.60;;;24.60;48.40;;;;;;6256194;28;20308;-75
2023/06/28 14:47:49;;;;;;;2.83;2.67;;;24.50;47.20;;;;;;6259199;28;20230;-76
2023/06/28 14:50:52;;;;;;;3.07;2.50;;;24.40;47.80;;;;;;6260350;28;20234;-76
2023/06/28 14:53:55;;;;;;;4.67;2.70;;;24.40;48.10;;;;;;6263141;28;20233;-76
2023/06/28 14:57:03;;;;;;;3.57;2.37;;;24.40;48.40;;;;;;6256354;28;20748;-78
2023/06/28 15:00:11;;;;;;;2.90;2.70;;;24.60;47.60;;;;;;6260494;28;20226;-76
2023/06/28 15:03:15;;;;;;;5.57;2.67;;;24.70;47.10;;;;;;6261935;28;20245;-78
2023/06/28 15:06:19;;;;;;;5.03;2.77;;;24.30;47.70;;;;;;6256166;28;20244;-76
2023/06/28 15:09:22;;;;;;;2.73;2.50;;;24.20;48.00;;;;;;6260844;28;20941;-79
2023/06/28 15:12:25;;;;;;;3.20;2.90;;;24.10;48.00;;;;;;6221846;28;20716;-77
2023/06/28 15:15:31;;;;;;;2.90;2.80;;;24.30;47.80;;;;;;6222411;28;20789;-76
2023/06/28 15:18:34;;;;;;;3.77;2.77;;;24.60;47.70;;;;;;6233162;28;20247;-77
2023/06/28 15:21:37;;;;;;;3.67;2.87;;;25.00;47.50;;;;;;6233589;28;21746;-75
2023/06/28 15:24:40;;;;;;;2.87;2.70;;;25.00;47.40;;;;;;6235516;28;20230;-76
2023/06/28 15:27:44;;;;;;;3.03;2.83;;;25.20;47.60;;;;;;6225219;28;20231;-75
2023/06/28 15:30:48;;;;;;;2.87;2.60;;;25.10;46.30;;;;;;6235410;28;20235;-77
2023/06/28 15:33:51;;;;;;;2.60;2.43;;;24.80;47.20;;;;;;6248095;28;21016;-78
2023/06/28 15:36:54;;;;;;;2.77;2.57;;;24.60;47.20;;;;;;6238959;28;20314;-79
2023/06/28 15:39:57;;;;;;;3.27;2.97;;;24.40;47.20;;;;;;6260092;28;20312;-76
2023/06/28 15:43:00;;;;;;;3.73;3.43;;;24.40;47.90;;;;;;6263944;28;20238;-76
2023/06/28 15:46:09;;;;;;;4.37;2.50;;;24.40;47.50;;;;;;6251944;28;20249;-79
2023/06/28 15:49:12;;;;;;;4.40;2.60;;;24.50;47.50;;;;;;6252966;28;20250;-76
2023/06/28 15:52:15;;;;;;;2.20;2.10;;;24.60;47.20;;;;;;6254632;28;20509;-75
2023/06/28 15:55:24;;;;;;;2.93;2.60;;;24.60;47.40;;;;;;6259614;28;20330;-77
2023/06/28 15:58:27;;;;;;;7.60;7.00;;;24.60;47.60;;;;;;6236270;28;20746;-77